Time;durP1;ratioP1;P1;durP2;ratioP2;P2;SDS_P1;SDS_P2;PMS_P1;PMS_P2;Temp;Humidity;BMP_temperature;BMP_pressure;BME280_temperature;BME280_humidity;BME280_pressure;Samples;Min_cycle;Max_cycle;Signal;HPM_P1;HPM_P2
2021/05/26 00:00:23;;;;;;;10.43;3.08;;;21.30;58.90;;;;;;5073060;28;20546;-59
2021/05/26 00:02:51;;;;;;;16.75;3.00;;;21.20;53.40;;;;;;5073040;28;20021;-60
2021/05/26 00:05:18;;;;;;;15.40;5.97;;;21.30;55.40;;;;;;5073581;28;20032;-57
2021/05/26 00:07:45;;;;;;;6.70;3.35;;;21.40;54.70;;;;;;5073859;28;20107;-51
2021/05/26 00:10:13;;;;;;;12.63;2.45;;;21.50;53.50;;;;;;5073215;28;20086;-52
2021/05/26 00:12:41;;;;;;;17.63;6.32;;;21.60;55.90;;;;;;5072427;28;20089;-48
2021/05/26 00:15:10;;;;;;;12.30;6.43;;;21.70;54.40;;;;;;5072867;28;20480;-51
2021/05/26 00:17:37;;;;;;;16.15;6.30;;;21.60;66.00;;;;;;5072712;28;20037;-51
2021/05/26 00:20:05;;;;;;;7.22;3.30;;;21.70;63.10;;;;;;5073194;28;20089;-56
2021/05/26 00:22:33;;;;;;;12.10;6.60;;;21.90;55.90;;;;;;5073044;28;20091;-53
2021/05/26 00:25:00;;;;;;;10.15;4.00;;;21.90;58.60;;;;;;5073078;28;20123;-59
2021/05/26 00:27:28;;;;;;;8.32;5.70;;;21.80;54.80;;;;;;5073472;28;20051;-53
2021/05/26 00:29:55;;;;;;;18.02;6.95;;;22.00;56.90;;;;;;5073124;28;20024;-64
2021/05/26 00:32:22;;;;;;;14.82;5.10;;;22.10;64.50;;;;;;5073364;28;20107;-56
2021/05/26 00:34:50;;;;;;;6.38;4.88;;;22.20;54.30;;;;;;5072672;28;20406;-54
2021/05/26 00:37:17;;;;;;;8.02;3.60;;;22.30;54.00;;;;;;5072742;28;20040;-51
2021/05/26 00:39:46;;;;;;;9.70;6.95;;;22.40;50.60;;;;;;5072549;28;20081;-50
2021/05/26 00:42:23;;;;;;;17.10;6.13;;;22.40;64.00;;;;;;5072676;28;20047;-59
2021/05/26 00:44:54;;;;;;;15.25;7.93;;;22.40;55.80;;;;;;5072662;28;20107;-52
2021/05/26 00:47:37;;;;;;;10.45;2.53;;;22.40;62.50;;;;;;5072141;28;20467;-53
2021/05/26 00:50:05;;;;;;;19.10;4.32;;;22.60;53.10;;;;;;5072643;28;20034;-55
2021/05/26 00:52:33;;;;;;;5.90;3.35;;;22.40;50.90;;;;;;5072115;28;20047;-50
2021/05/26 00:55:00;;;;;;;26.67;4.30;;;22.50;51.40;;;;;;5070283;28;20028;-50
2021/05/26 00:57:28;;;;;;;10.90;6.57;;;22.40;59.80;;;;;;5072214;28;20032;-60
2021/05/26 00:59:56;;;;;;;13.13;6.85;;;22.50;63.50;;;;;;5072004;28;20484;-57
2021/05/26 01:02:23;;;;;;;5.53;2.88;;;22.50;61.90;;;;;;5071376;28;20036;-52
2021/05/26 01:04:50;;;;;;;10.88;7.22;;;22.60;50.60;;;;;;5072128;28;20035;-58
2021/05/26 01:07:18;;;;;;;13.32;9.40;;;22.60;63.50;;;;;;5072080;28;20028;-51
2021/05/26 01:09:45;;;;;;;22.83;12.30;;;22.90;61.80;;;;;;5072156;28;20032;-53
2021/05/26 01:12:13;;;;;;;9.65;7.93;;;23.10;61.70;;;;;;5071577;28;20051;-54
2021/05/26 01:14:40;;;;;;;12.85;6.72;;;23.20;62.50;;;;;;5071532;28;20020;-52
2021/05/26 01:17:08;;;;;;;10.07;9.13;;;23.30;56.60;;;;;;5070670;28;20098;-51
2021/05/26 01:19:35;;;;;;;19.08;7.03;;;23.40;60.80;;;;;;5071316;28;20021;-53
2021/05/26 01:22:05;;;;;;;8.98;7.90;;;23.50;58.30;;;;;;5071543;28;20050;-49
2021/05/26 01:24:33;;;;;;;14.43;10.15;;;23.60;59.00;;;;;;5071978;28;20527;-53
2021/05/26 01:27:00;;;;;;;22.88;20.05;;;23.60;59.10;;;;;;5071161;28;20120;-49
2021/05/26 01:29:27;;;;;;;12.13;6.35;;;23.70;61.20;;;;;;5070957;28;20119;-48
2021/05/26 01:31:55;;;;;;;13.13;7.53;;;23.70;55.60;;;;;;5072009;28;20120;-48
2021/05/26 01:34:23;;;;;;;17.67;12.10;;;23.80;53.40;;;;;;5071474;28;20020;-50
2021/05/26 01:36:51;;;;;;;27.58;15.38;;;23.90;57.00;;;;;;5071897;28;20540;-48
2021/05/26 01:39:20;;;;;;;13.60;12.20;;;23.90;61.10;;;;;;5071494;28;20059;-51
2021/05/26 01:41:48;;;;;;;22.52;8.13;;;23.80;59.70;;;;;;5071823;28;20052;-52
2021/05/26 01:44:15;;;;;;;16.60;4.60;;;23.80;58.70;;;;;;5071443;28;20029;-51
2021/05/26 01:46:43;;;;;;;20.55;7.03;;;23.80;51.60;;;;;;5070586;28;20513;-50
2021/05/26 01:49:10;;;;;;;17.52;11.27;;;23.80;57.20;;;;;;5071195;28;20037;-48
2021/05/26 01:51:38;;;;;;;11.75;7.03;;;23.80;60.00;;;;;;5070102;28;20060;-47
2021/05/26 01:54:05;;;;;;;20.63;11.90;;;23.80;54.40;;;;;;5071480;28;20447;-55
2021/05/26 01:56:34;;;;;;;18.70;9.85;;;23.90;57.00;;;;;;5071121;28;20052;-46
2021/05/26 01:59:01;;;;;;;15.88;13.50;;;24.10;54.20;;;;;;5070235;28;20122;-51
2021/05/26 02:01:29;;;;;;;15.23;9.85;;;24.20;55.40;;;;;;5071423;28;20028;-52
2021/05/26 02:03:57;;;;;;;18.38;15.23;;;24.30;53.30;;;;;;5070933;28;20047;-56
2021/05/26 02:06:25;;;;;;;29.00;6.90;;;24.20;54.40;;;;;;5070258;28;20371;-54
2021/05/26 02:08:55;;;;;;;26.17;14.20;;;24.30;50.40;;;;;;5071321;28;20025;-55
2021/05/26 02:14:10;;;;;;;22.75;10.75;;;23.90;57.50;;;;;;5071707;28;20434;-59
2021/05/26 02:16:38;;;;;;;14.48;10.25;;;23.90;59.00;;;;;;5071278;28;20044;-60
2021/05/26 02:19:06;;;;;;;19.00;10.10;;;23.90;59.90;;;;;;5071721;28;20032;-58
2021/05/26 02:21:33;;;;;;;20.95;11.05;;;24.10;57.90;;;;;;5070889;28;20063;-53
2021/05/26 02:24:00;;;;;;;17.08;10.68;;;24.30;57.80;;;;;;5070759;28;20154;-51
2021/05/26 02:26:28;;;;;;;18.45;11.13;;;24.50;57.50;;;;;;5070527;28;20128;-56
2021/05/26 02:28:55;;;;;;;11.75;9.20;;;24.60;55.70;;;;;;5060732;28;20028;-53
2021/05/26 02:31:22;;;;;;;13.70;10.60;;;24.80;54.70;;;;;;5074431;28;20028;-53
2021/05/26 02:33:50;;;;;;;13.23;12.00;;;24.90;53.70;;;;;;5074823;28;20032;-59
2021/05/26 02:36:17;;;;;;;13.75;9.35;;;24.90;55.80;;;;;;5074718;28;20025;-56
2021/05/26 02:38:44;;;;;;;18.30;9.27;;;24.90;55.10;;;;;;5074712;28;20119;-50
2021/05/26 02:41:12;;;;;;;18.55;10.02;;;25.00;54.30;;;;;;5075332;28;20195;-58
2021/05/26 02:43:41;;;;;;;13.20;10.45;;;25.00;56.80;;;;;;5072196;28;20012;-61
2021/05/26 02:46:08;;;;;;;10.40;8.68;;;24.90;56.40;;;;;;5074768;28;20479;-55
2021/05/26 02:48:35;;;;;;;10.95;8.20;;;24.90;55.30;;;;;;5074513;28;20092;-60
2021/05/26 02:51:03;;;;;;;15.45;9.23;;;25.00;56.50;;;;;;5075072;28;20028;-48
2021/05/26 02:53:30;;;;;;;10.82;8.30;;;25.10;56.00;;;;;;5074935;28;20028;-57
2021/05/26 02:55:57;;;;;;;10.00;6.65;;;25.00;56.60;;;;;;5075325;28;20039;-59
2021/05/26 02:58:25;;;;;;;10.25;7.45;;;25.00;52.50;;;;;;5073086;28;20056;-55
2021/05/26 03:00:52;;;;;;;10.00;7.57;;;25.10;53.70;;;;;;5074057;28;20074;-59
2021/05/26 03:03:19;;;;;;;9.82;7.10;;;25.20;54.50;;;;;;5074498;28;20067;-52
2021/05/26 03:05:47;;;;;;;8.27;7.45;;;25.20;55.10;;;;;;5073125;28;20051;-61
2021/05/26 03:08:14;;;;;;;10.48;7.65;;;25.20;55.90;;;;;;5075125;28;20041;-55
2021/05/26 03:10:41;;;;;;;7.60;6.32;;;25.30;52.80;;;;;;5074365;28;20048;-57
2021/05/26 03:13:09;;;;;;;8.30;6.22;;;25.50;51.70;;;;;;5073988;28;20021;-52
2021/05/26 03:15:36;;;;;;;8.73;6.53;;;25.40;53.40;;;;;;5074102;28;20100;-50
2021/05/26 03:18:06;;;;;;;13.10;7.18;;;25.40;55.20;;;;;;5074556;28;20020;-57
2021/05/26 03:20:33;;;;;;;10.00;5.22;;;25.40;55.70;;;;;;5073959;28;20086;-58
2021/05/26 03:23:00;;;;;;;10.85;4.75;;;25.40;53.70;;;;;;5065059;28;20029;-50
2021/05/26 03:25:28;;;;;;;7.20;5.57;;;25.50;53.40;;;;;;5073257;28;20387;-52
2021/05/26 03:27:55;;;;;;;8.45;5.95;;;25.50;55.70;;;;;;5073927;28;20028;-57
2021/05/26 03:30:23;;;;;;;9.20;5.65;;;25.50;54.50;;;;;;5074016;28;20052;-50
2021/05/26 03:32:50;;;;;;;8.27;6.47;;;25.50;52.50;;;;;;5072350;28;20339;-59
2021/05/26 03:35:18;;;;;;;7.53;4.88;;;25.40;52.30;;;;;;5074028;28;20433;-55
2021/05/26 03:37:47;;;;;;;10.88;5.60;;;25.50;55.50;;;;;;5074065;28;20021;-54
2021/05/26 03:40:16;;;;;;;11.07;4.72;;;25.40;54.50;;;;;;5073960;28;20044;-58
2021/05/26 03:42:44;;;;;;;9.10;5.30;;;25.40;53.10;;;;;;5073732;28;20028;-51
2021/05/26 03:45:14;;;;;;;5.70;4.28;;;25.40;53.40;;;;;;5073510;28;20107;-54
2021/05/26 03:47:42;;;;;;;12.32;4.13;;;25.40;54.90;;;;;;5074527;28;20102;-56
2021/05/26 03:50:14;;;;;;;7.18;4.57;;;25.50;52.40;;;;;;5074037;28;20039;-58
2021/05/26 03:52:43;;;;;;;7.82;3.00;;;25.60;51.70;;;;;;5072078;28;20059;-56
2021/05/26 03:55:12;;;;;;;8.45;4.75;;;25.50;50.40;;;;;;5073747;28;20120;-50
2021/05/26 03:57:40;;;;;;;8.57;3.78;;;25.60;55.90;;;;;;5073432;28;20376;-59
2021/05/26 04:00:09;;;;;;;6.00;3.05;;;25.50;53.60;;;;;;5073540;28;20146;-52
2021/05/26 04:02:36;;;;;;;8.20;3.30;;;25.60;51.10;;;;;;5073564;28;20040;-56
2021/05/26 04:05:05;;;;;;;6.78;3.55;;;25.80;53.40;;;;;;5073613;28;20032;-51
2021/05/26 04:07:33;;;;;;;4.78;2.85;;;25.70;53.10;;;;;;5073579;28;20173;-57
2021/05/26 04:10:00;;;;;;;5.65;2.90;;;25.80;54.60;;;;;;5073732;28;20020;-62
2021/05/26 04:12:28;;;;;;;7.13;2.92;;;25.80;51.90;;;;;;5072914;28;20041;-58
2021/05/26 04:14:56;;;;;;;14.35;3.13;;;25.80;53.50;;;;;;5073259;28;20025;-60
2021/05/26 04:17:24;;;;;;;7.10;3.42;;;25.90;52.20;;;;;;5073618;28;20033;-57
2021/05/26 04:19:52;;;;;;;5.75;3.20;;;26.00;52.90;;;;;;5073378;28;20025;-53
2021/05/26 04:22:19;;;;;;;3.83;2.70;;;26.10;53.50;;;;;;5072891;28;20035;-52
2021/05/26 04:24:47;;;;;;;6.05;3.10;;;26.00;51.70;;;;;;5066142;28;20032;-51
2021/05/26 04:27:14;;;;;;;6.70;2.45;;;26.10;54.50;;;;;;5071416;28;20513;-51
2021/05/26 04:29:42;;;;;;;5.40;3.00;;;26.10;51.00;;;;;;5074419;28;20415;-54
2021/05/26 04:32:09;;;;;;;6.55;2.72;;;26.20;49.50;;;;;;5068490;28;20060;-53
2021/05/26 04:34:36;;;;;;;4.38;2.92;;;26.20;50.10;;;;;;5066570;28;20035;-46
2021/05/26 04:37:04;;;;;;;3.00;2.67;;;26.10;54.00;;;;;;5070085;28;20056;-54
2021/05/26 04:39:31;;;;;;;5.82;2.50;;;26.20;54.00;;;;;;5070160;28;20040;-52
2021/05/26 04:41:58;;;;;;;5.78;2.65;;;26.20;54.20;;;;;;5066945;28;20530;-52
2021/05/26 04:44:26;;;;;;;5.80;2.38;;;26.30;54.00;;;;;;5069271;28;20108;-58
2021/05/26 04:46:53;;;;;;;6.60;2.90;;;26.30;52.40;;;;;;5070683;28;20029;-54
2021/05/26 04:49:20;;;;;;;6.90;2.75;;;26.20;52.30;;;;;;5069072;28;20092;-45
2021/05/26 04:51:48;;;;;;;6.28;2.40;;;26.10;53.50;;;;;;5066511;28;20427;-50
2021/05/26 04:54:15;;;;;;;2.95;2.22;;;26.10;52.30;;;;;;5066181;28;20474;-46
2021/05/26 04:56:44;;;;;;;6.53;2.42;;;26.20;54.90;;;;;;5067762;28;20036;-49
2021/05/26 04:59:12;;;;;;;6.45;2.35;;;26.20;50.90;;;;;;5069371;28;20448;-48
2021/05/26 05:01:40;;;;;;;2.60;2.13;;;26.10;51.30;;;;;;5066918;28;20028;-48
2021/05/26 05:04:07;;;;;;;3.72;2.08;;;26.10;50.00;;;;;;5069938;28;20028;-45
2021/05/26 05:06:34;;;;;;;2.88;2.33;;;26.10;51.20;;;;;;5069094;28;20032;-51
2021/05/26 05:09:02;;;;;;;2.90;2.50;;;26.10;55.00;;;;;;5069827;28;20040;-46
2021/05/26 05:11:30;;;;;;;3.85;2.25;;;26.00;55.30;;;;;;5066517;28;20060;-50
2021/05/26 05:13:57;;;;;;;4.60;2.13;;;26.00;54.30;;;;;;5067085;28;20052;-49
2021/05/26 05:16:26;;;;;;;4.50;2.00;;;26.00;55.20;;;;;;5067511;28;20175;-47
2021/05/26 05:18:54;;;;;;;2.97;2.03;;;26.00;53.60;;;;;;5071878;28;20035;-51
2021/05/26 05:21:21;;;;;;;4.18;1.92;;;25.90;55.50;;;;;;5066516;28;20040;-47
2021/05/26 05:23:49;;;;;;;3.08;1.77;;;25.90;51.10;;;;;;5068383;28;20067;-49
2021/05/26 05:26:17;;;;;;;2.47;1.90;;;25.90;53.50;;;;;;5069998;28;20512;-50
2021/05/26 05:28:44;;;;;;;3.63;2.15;;;25.80;53.40;;;;;;5068778;28;22343;-57
2021/05/26 05:31:12;;;;;;;2.85;1.80;;;25.80;54.10;;;;;;5065824;28;20021;-45
2021/05/26 05:33:39;;;;;;;3.95;1.98;;;25.70;53.20;;;;;;5066813;28;20039;-51
2021/05/26 05:36:09;;;;;;;2.35;1.73;;;25.70;54.20;;;;;;5069292;28;20029;-48
2021/05/26 05:38:37;;;;;;;8.45;2.05;;;25.50;54.70;;;;;;5069100;28;20028;-52
2021/05/26 05:41:05;;;;;;;2.15;1.88;;;25.30;50.30;;;;;;5066413;28;20028;-49
2021/05/26 05:43:33;;;;;;;5.78;2.20;;;25.20;52.60;;;;;;5067644;28;20479;-45
2021/05/26 05:46:01;;;;;;;2.78;1.85;;;24.90;53.40;;;;;;5069366;28;20044;-51
2021/05/26 05:48:29;;;;;;;2.58;2.38;;;24.60;55.20;;;;;;5067692;28;20020;-50
2021/05/26 05:50:57;;;;;;;6.07;2.95;;;24.30;56.50;;;;;;5068215;28;20036;-60
2021/05/26 05:53:24;;;;;;;14.77;3.80;;;24.10;55.40;;;;;;5065298;28;20090;-51
2021/05/26 05:55:51;;;;;;;6.97;4.10;;;23.90;57.30;;;;;;5068389;28;20031;-49
2021/05/26 05:58:29;;;;;;;12.88;3.45;;;23.60;58.30;;;;;;5068728;28;20367;-50
2021/05/26 06:00:56;;;;;;;9.52;3.75;;;23.40;57.90;;;;;;5068322;28;20017;-53
2021/05/26 06:03:25;;;;;;;6.97;3.80;;;23.20;59.00;;;;;;5066176;28;20031;-55
2021/05/26 06:05:52;;;;;;;14.07;5.10;;;23.00;58.90;;;;;;5068803;28;20032;-52
2021/05/26 06:08:19;;;;;;;7.28;4.15;;;22.80;58.90;;;;;;5068140;28;20035;-47
2021/05/26 06:10:47;;;;;;;9.05;4.05;;;22.70;57.10;;;;;;5069062;28;20119;-52
2021/05/26 06:13:14;;;;;;;15.65;5.13;;;22.60;56.70;;;;;;5063990;28;20058;-48
2021/05/26 06:15:42;;;;;;;5.45;4.28;;;22.50;62.70;;;;;;5069305;28;20028;-52
2021/05/26 06:18:09;;;;;;;9.48;4.15;;;22.30;59.70;;;;;;5069250;28;20095;-51
2021/05/26 06:20:36;;;;;;;8.13;4.93;;;22.20;60.50;;;;;;5068342;28;20066;-50
2021/05/26 06:23:04;;;;;;;8.73;5.30;;;22.10;60.80;;;;;;5063917;28;20036;-55
2021/05/26 06:25:31;;;;;;;9.98;5.68;;;22.10;63.00;;;;;;5068667;28;20028;-53
2021/05/26 06:27:59;;;;;;;10.75;6.35;;;22.00;61.20;;;;;;5068581;28;20065;-57
2021/05/26 06:30:26;;;;;;;7.38;5.97;;;21.80;65.10;;;;;;5068237;28;20040;-51
2021/05/26 06:32:54;;;;;;;9.85;7.97;;;21.80;61.80;;;;;;5064879;28;20055;-47
2021/05/26 06:35:21;;;;;;;25.58;8.82;;;21.70;63.10;;;;;;5066828;28;20120;-48
2021/05/26 06:37:48;;;;;;;18.25;7.28;;;21.60;63.60;;;;;;5069484;28;20033;-55
2021/05/26 06:40:16;;;;;;;12.63;6.25;;;21.60;63.40;;;;;;5070950;28;20033;-57
2021/05/26 06:42:44;;;;;;;15.88;5.88;;;21.60;59.10;;;;;;5070844;28;20053;-49
2021/05/26 06:45:12;;;;;;;18.20;7.43;;;21.50;57.90;;;;;;5069693;28;20119;-53
2021/05/26 06:47:40;;;;;;;13.80;5.35;;;21.50;61.60;;;;;;5070477;28;20039;-51
2021/05/26 06:50:07;;;;;;;8.15;4.03;;;21.40;53.70;;;;;;5070598;28;20028;-60
2021/05/26 06:52:35;;;;;;;14.52;4.20;;;21.40;56.90;;;;;;5070892;28;20077;-51
2021/05/26 06:55:02;;;;;;;11.65;4.22;;;21.30;58.40;;;;;;5070370;28;20025;-55
2021/05/26 06:57:29;;;;;;;14.48;3.40;;;21.30;57.90;;;;;;5063264;28;20107;-52
2021/05/26 06:59:57;;;;;;;10.75;3.60;;;21.20;54.30;;;;;;5070592;28;20029;-50
2021/05/26 07:02:24;;;;;;;9.38;2.00;;;21.10;54.60;;;;;;5070256;28;20032;-49
2021/05/26 07:04:51;;;;;;;8.57;2.97;;;21.00;52.60;;;;;;5069489;28;20046;-48
2021/05/26 07:07:19;;;;;;;10.05;3.13;;;21.00;56.50;;;;;;5071031;28;20040;-56
2021/05/26 07:09:46;;;;;;;8.27;3.17;;;21.00;56.80;;;;;;5069722;28;20147;-50
2021/05/26 07:12:13;;;;;;;9.52;3.53;;;20.90;54.80;;;;;;5069670;28;20602;-55
2021/05/26 07:14:41;;;;;;;5.32;3.28;;;20.90;59.10;;;;;;5069728;28;20023;-45
2021/05/26 07:17:09;;;;;;;9.18;3.25;;;20.90;57.90;;;;;;5073179;28;20028;-50
2021/05/26 07:19:36;;;;;;;7.95;3.17;;;20.80;57.10;;;;;;5073956;28;20029;-53
2021/05/26 07:22:04;;;;;;;7.10;2.45;;;20.80;57.80;;;;;;5073960;28;20032;-58
2021/05/26 07:24:31;;;;;;;13.88;2.95;;;20.70;55.60;;;;;;5073618;28;20387;-58
2021/05/26 07:26:59;;;;;;;14.57;2.97;;;20.70;56.30;;;;;;5072154;28;20033;-48
2021/05/26 07:29:26;;;;;;;12.30;2.90;;;20.60;54.30;;;;;;5073667;28;20383;-57
2021/05/26 07:31:53;;;;;;;7.30;2.72;;;20.70;57.40;;;;;;5074025;28;20044;-52
2021/05/26 07:34:21;;;;;;;12.43;2.38;;;20.60;58.10;;;;;;5074064;28;20078;-48
2021/05/26 07:36:48;;;;;;;8.55;2.40;;;20.50;54.90;;;;;;5073479;28;20111;-56
2021/05/26 07:39:15;;;;;;;8.52;2.60;;;20.50;55.10;;;;;;5073580;28;20099;-56
2021/05/26 07:41:43;;;;;;;8.50;2.50;;;20.50;56.80;;;;;;5073138;28;20094;-55
2021/05/26 07:44:10;;;;;;;8.98;2.28;;;20.50;57.40;;;;;;5073450;28;20115;-54
2021/05/26 07:46:38;;;;;;;7.65;2.45;;;20.40;56.80;;;;;;5073245;28;20382;-56
2021/05/26 07:49:05;;;;;;;8.90;2.50;;;20.40;56.40;;;;;;5073249;28;20043;-52
2021/05/26 07:51:35;;;;;;;13.27;2.42;;;20.40;56.40;;;;;;5074057;28;20029;-50
2021/05/26 07:54:02;;;;;;;13.90;2.42;;;20.30;57.60;;;;;;5073463;28;20032;-51
2021/05/26 07:56:29;;;;;;;6.68;2.47;;;20.30;54.50;;;;;;5072558;28;20094;-53
2021/05/26 07:58:57;;;;;;;10.45;2.60;;;20.30;55.40;;;;;;5061210;28;20494;-57
2021/05/26 08:01:24;;;;;;;5.72;2.40;;;20.20;53.10;;;;;;5071928;28;20023;-60
2021/05/26 08:03:51;;;;;;;6.32;1.77;;;20.20;53.70;;;;;;5073101;28;20364;-61
2021/05/26 08:06:19;;;;;;;14.70;5.38;;;20.10;51.90;;;;;;5073094;28;20381;-57
2021/05/26 08:08:46;;;;;;;10.18;2.53;;;19.90;48.20;;;;;;5067695;28;20108;-48
2021/05/26 08:11:13;;;;;;;9.85;3.10;;;19.80;54.60;;;;;;5070683;28;20057;-48
2021/05/26 08:13:41;;;;;;;7.07;2.15;;;19.80;55.50;;;;;;5068771;28;20055;-53
2021/05/26 08:16:10;;;;;;;15.48;5.00;;;19.60;54.10;;;;;;5071320;28;20036;-44
2021/05/26 08:18:38;;;;;;;8.95;3.40;;;19.50;54.10;;;;;;5070682;28;20025;-53
2021/05/26 08:21:08;;;;;;;15.88;6.03;;;19.50;57.60;;;;;;5070478;28;20394;-48
2021/05/26 08:23:35;;;;;;;8.20;4.70;;;19.30;52.00;;;;;;5066639;28;20028;-52
2021/05/26 08:26:03;;;;;;;9.32;4.63;;;19.40;50.60;;;;;;5070796;28;20117;-61
2021/05/26 08:28:30;;;;;;;10.13;5.63;;;19.40;51.50;;;;;;5070066;28;20032;-56
2021/05/26 08:30:58;;;;;;;8.43;4.82;;;19.30;58.30;;;;;;5068997;28;20089;-50
2021/05/26 08:33:25;;;;;;;10.90;8.75;;;19.30;55.50;;;;;;5065707;28;20117;-50
2021/05/26 08:35:52;;;;;;;12.40;9.57;;;19.50;60.40;;;;;;5070998;28;20017;-48
2021/05/26 08:38:20;;;;;;;17.15;11.70;;;19.50;58.20;;;;;;5069162;28;20359;-50
2021/05/26 08:40:48;;;;;;;19.88;14.85;;;19.60;56.40;;;;;;5071785;28;20421;-53
2021/05/26 08:43:17;;;;;;;25.33;19.55;;;19.60;55.70;;;;;;5071081;28;20040;-54
2021/05/26 08:45:45;;;;;;;17.60;15.05;;;19.60;54.60;;;;;;5073036;28;20044;-53
2021/05/26 08:48:17;;;;;;;17.92;12.40;;;19.50;55.30;;;;;;5073083;28;20047;-54
2021/05/26 08:50:49;;;;;;;21.17;8.57;;;19.50;54.20;;;;;;5072375;28;20035;-58
2021/05/26 08:53:16;;;;;;;17.00;8.25;;;19.40;53.00;;;;;;5073029;28;20082;-49
2021/05/26 08:55:44;;;;;;;17.63;7.10;;;19.40;54.00;;;;;;5072453;28;20025;-50
2021/05/26 08:58:11;;;;;;;21.55;8.90;;;19.40;55.10;;;;;;5072242;28;20020;-51
2021/05/26 09:00:38;;;;;;;16.75;7.43;;;19.40;56.70;;;;;;5072317;28;20497;-52
2021/05/26 09:03:06;;;;;;;19.85;7.22;;;19.40;56.10;;;;;;5072594;28;20029;-56
2021/05/26 09:05:35;;;;;;;13.00;6.63;;;19.40;55.80;;;;;;5071029;28;20044;-55
2021/05/26 09:08:20;;;;;;;10.95;4.70;;;19.40;56.30;;;;;;5066632;28;20072;-48
2021/05/26 09:10:57;;;;;;;17.42;5.93;;;19.40;53.80;;;;;;5067596;28;20123;-55
2021/05/26 09:13:35;;;;;;;13.88;9.13;;;19.40;54.40;;;;;;5066048;28;20044;-51
2021/05/26 09:16:22;;;;;;;21.92;13.90;;;19.30;54.50;;;;;;5070246;28;20120;-51
2021/05/26 09:18:56;;;;;;;22.02;14.38;;;19.40;54.20;;;;;;5065768;28;20065;-51
2021/05/26 09:21:37;;;;;;;21.90;12.30;;;19.40;56.50;;;;;;5068191;28;20043;-53
2021/05/26 09:24:20;;;;;;;18.63;13.80;;;19.40;52.60;;;;;;5067345;28;20113;-48
2021/05/26 09:27:00;;;;;;;29.20;20.95;;;19.40;54.20;;;;;;5067308;28;20037;-49
2021/05/26 09:29:40;;;;;;;23.17;18.77;;;19.40;53.90;;;;;;5065449;28;20100;-49
2021/05/26 09:32:27;;;;;;;29.00;20.90;;;19.40;54.50;;;;;;5068627;28;20127;-50
2021/05/26 09:34:56;;;;;;;30.55;15.18;;;19.40;51.70;;;;;;5068227;28;20753;-52
2021/05/26 09:37:31;;;;;;;22.23;16.25;;;19.40;56.60;;;;;;5071317;28;20123;-52
2021/05/26 09:40:06;;;;;;;24.17;17.13;;;19.40;53.80;;;;;;5071314;28;20035;-53
2021/05/26 09:42:36;;;;;;;26.33;17.70;;;19.40;54.50;;;;;;5068502;28;20138;-49
2021/05/26 09:45:12;;;;;;;24.50;13.07;;;19.40;54.20;;;;;;5071157;28;20479;-53
2021/05/26 09:47:49;;;;;;;35.88;15.70;;;19.50;55.10;;;;;;5067499;28;20040;-51
2021/05/26 09:50:34;;;;;;;28.80;16.70;;;19.40;57.30;;;;;;5070976;28;20029;-50
2021/05/26 09:53:18;;;;;;;28.65;16.67;;;19.40;57.80;;;;;;5068518;28;20402;-51
2021/05/26 09:55:47;;;;;;;30.30;15.77;;;19.40;59.30;;;;;;5070769;28;20080;-49
2021/05/26 09:58:16;;;;;;;30.52;14.85;;;19.40;58.50;;;;;;5070849;28;20268;-52
2021/05/26 10:00:46;;;;;;;17.02;10.90;;;19.40;59.40;;;;;;5070992;28;20052;-51
2021/05/26 10:03:14;;;;;;;20.45;10.02;;;19.40;56.30;;;;;;5071371;28;20565;-47
2021/05/26 10:05:41;;;;;;;16.13;9.60;;;19.40;58.40;;;;;;5071487;28;20036;-50
2021/05/26 10:08:13;;;;;;;18.70;7.82;;;19.40;58.90;;;;;;5070758;28;20040;-48
2021/05/26 10:10:46;;;;;;;31.50;8.60;;;19.40;58.20;;;;;;5070744;28;20068;-48
2021/05/26 10:13:14;;;;;;;15.57;6.72;;;19.40;56.70;;;;;;5066011;28;20074;-50
2021/05/26 10:15:43;;;;;;;17.88;5.93;;;19.40;57.60;;;;;;5068436;28;20029;-48
2021/05/26 10:18:11;;;;;;;11.90;4.80;;;19.40;56.70;;;;;;5070682;28;20043;-46
2021/05/26 10:20:43;;;;;;;10.02;4.55;;;19.40;57.60;;;;;;5070380;28;20493;-47
2021/05/26 10:23:17;;;;;;;10.38;4.20;;;19.40;57.90;;;;;;5069865;28;20039;-52
2021/05/26 10:25:46;;;;;;;13.02;5.57;;;19.30;57.70;;;;;;5069390;28;20040;-51
2021/05/26 10:28:33;;;;;;;14.00;4.47;;;19.30;58.70;;;;;;5070802;28;20025;-49
2021/05/26 10:31:03;;;;;;;17.52;4.38;;;19.30;57.50;;;;;;5069086;28;20025;-48
2021/05/26 10:33:51;;;;;;;15.60;4.55;;;19.20;57.40;;;;;;5069391;28;20032;-51
2021/05/26 10:36:18;;;;;;;12.25;4.13;;;19.30;57.50;;;;;;5070924;28;20028;-46
2021/05/26 10:39:00;;;;;;;19.02;3.63;;;19.30;58.30;;;;;;5069770;28;20103;-47
2021/05/26 10:41:52;;;;;;;16.83;3.50;;;19.20;60.20;;;;;;5065274;28;20410;-48
2021/05/26 10:44:20;;;;;;;14.23;3.35;;;19.20;57.70;;;;;;5063856;28;20425;-49
2021/05/26 10:46:50;;;;;;;16.00;3.08;;;19.20;58.70;;;;;;5067010;28;20090;-49
2021/05/26 10:49:17;;;;;;;6.22;3.47;;;19.10;59.90;;;;;;5067238;28;20025;-52
2021/05/26 10:51:56;;;;;;;10.18;2.78;;;19.20;60.70;;;;;;5065694;28;20530;-54
2021/05/26 10:54:42;;;;;;;17.95;3.53;;;19.10;61.10;;;;;;5070713;28;20054;-55
2021/05/26 10:57:10;;;;;;;12.95;3.92;;;19.10;61.30;;;;;;5073555;28;20391;-55
2021/05/26 10:59:38;;;;;;;11.60;3.58;;;19.10;61.20;;;;;;5074043;28;20060;-52
2021/05/26 11:02:08;;;;;;;13.60;3.22;;;19.10;60.80;;;;;;5073324;28;20029;-57
2021/05/26 11:04:37;;;;;;;9.27;3.13;;;19.00;60.80;;;;;;5073950;28;20032;-59
2021/05/26 11:07:24;;;;;;;15.65;2.80;;;19.00;61.50;;;;;;5073635;28;20036;-54
2021/05/26 11:10:03;;;;;;;6.05;3.40;;;19.00;62.10;;;;;;5070342;28;20104;-53
2021/05/26 11:12:55;;;;;;;7.70;3.15;;;19.00;62.00;;;;;;5072346;28;20191;-50
2021/05/26 11:15:48;;;;;;;8.63;3.00;;;18.90;62.10;;;;;;5071120;28;20024;-56
2021/05/26 11:20:56;;;;;;;5.75;2.60;;;18.90;62.60;;;;;;5070810;28;20503;-57
2021/05/26 11:23:24;;;;;;;12.63;2.97;;;18.90;62.70;;;;;;5072777;28;20422;-47
2021/05/26 11:25:52;;;;;;;10.38;2.75;;;18.90;62.80;;;;;;5074023;28;20423;-49
2021/05/26 11:28:50;;;;;;;9.30;2.90;;;18.90;62.80;;;;;;5073903;28;20495;-48
2021/05/26 11:31:18;;;;;;;8.63;3.20;;;18.80;63.40;;;;;;5069018;28;20040;-54
2021/05/26 11:34:01;;;;;;;4.28;2.78;;;18.80;63.60;;;;;;5072825;28;20029;-55
2021/05/26 11:36:42;;;;;;;10.27;2.35;;;18.80;63.80;;;;;;5071119;28;20043;-49
2021/05/26 11:39:31;;;;;;;4.95;2.20;;;18.70;63.70;;;;;;5073981;28;20029;-52
2021/05/26 11:42:20;;;;;;;6.13;2.22;;;18.70;64.00;;;;;;5072235;28;20112;-52
2021/05/26 11:45:08;;;;;;;7.60;2.75;;;18.70;64.20;;;;;;5073786;28;20028;-53
2021/05/26 11:47:47;;;;;;;8.25;3.97;;;18.70;64.50;;;;;;5071914;28;20127;-48
2021/05/26 11:50:15;;;;;;;6.20;2.30;;;18.70;64.30;;;;;;5074068;28;20611;-50
2021/05/26 11:52:52;;;;;;;6.15;1.98;;;18.60;63.90;;;;;;5071698;28;20042;-50
2021/05/26 11:55:23;;;;;;;6.47;2.38;;;18.60;64.90;;;;;;5072676;28;20107;-44
2021/05/26 11:57:53;;;;;;;4.45;2.20;;;18.60;64.90;;;;;;5072754;28;20036;-48
2021/05/26 12:00:31;;;;;;;5.07;2.08;;;18.60;64.70;;;;;;5072924;28;20044;-49
2021/05/26 12:03:24;;;;;;;6.05;2.33;;;18.60;64.80;;;;;;5072689;28;20028;-47
2021/05/26 12:05:53;;;;;;;7.45;2.15;;;18.60;64.60;;;;;;5070930;28;20427;-54
2021/05/26 12:08:23;;;;;;;3.58;1.95;;;18.60;65.10;;;;;;5073878;28;20443;-45
2021/05/26 12:11:03;;;;;;;6.03;2.00;;;18.60;65.20;;;;;;5072192;28;20048;-47
2021/05/26 12:13:39;;;;;;;3.75;2.08;;;18.60;65.10;;;;;;5069468;28;20070;-45
2021/05/26 12:16:18;;;;;;;6.50;2.45;;;18.60;65.20;;;;;;5070768;28;20123;-52
2021/05/26 12:19:03;;;;;;;4.55;2.38;;;18.50;65.00;;;;;;5073237;28;20043;-52
2021/05/26 12:21:31;;;;;;;4.07;2.42;;;18.50;65.20;;;;;;5069793;28;20012;-59
2021/05/26 12:24:07;;;;;;;5.38;2.45;;;18.50;65.20;;;;;;5071802;28;20028;-61
2021/05/26 12:26:37;;;;;;;5.65;2.17;;;18.50;65.80;;;;;;5072930;28;20037;-58
2021/05/26 12:29:09;;;;;;;7.03;1.63;;;18.50;65.30;;;;;;5073361;28;20025;-52
2021/05/26 12:31:38;;;;;;;4.57;1.75;;;18.50;65.50;;;;;;5071701;28;20099;-54
2021/05/26 12:34:20;;;;;;;6.15;2.30;;;18.50;65.80;;;;;;5071589;28;20051;-63
2021/05/26 12:36:56;;;;;;;3.00;2.10;;;18.50;65.70;;;;;;5072835;28;20092;-57
2021/05/26 12:39:24;;;;;;;4.95;1.83;;;18.50;65.40;;;;;;5073461;28;20016;-62
2021/05/26 12:41:53;;;;;;;3.28;2.08;;;18.50;65.70;;;;;;5072617;28;20021;-66
2021/05/26 12:44:27;;;;;;;3.58;1.83;;;18.50;66.00;;;;;;5071463;28;20375;-60
2021/05/26 12:46:59;;;;;;;4.18;2.05;;;18.50;65.90;;;;;;5073196;28;20125;-62
2021/05/26 12:49:29;;;;;;;;;;;18.50;66.20;;;;;;5073119;28;20029;-64
2021/05/26 12:51:58;;;;;;;3.58;1.90;;;18.40;66.30;;;;;;5072355;28;19942;-53
2021/05/26 12:54:26;;;;;;;3.67;1.63;;;18.40;66.40;;;;;;5071789;28;20055;-62
2021/05/26 12:57:07;;;;;;;2.83;1.30;;;18.40;66.60;;;;;;5072267;28;20032;-56
2021/05/26 12:59:39;;;;;;;4.00;1.80;;;18.40;66.70;;;;;;5072388;28;20036;-58